sensor_id;sensor_type;location;lat;lon;timestamp;temperature;humidity
24446;DHT22;13347;50.984;5.822;2024-02-16T00:01:08;14.10;11.30
24446;DHT22;13347;50.984;5.822;2024-02-16T00:03:35;14.20;8.30
24446;DHT22;13347;50.984;5.822;2024-02-16T00:06:02;14.20;1.00
24446;DHT22;13347;50.984;5.822;2024-02-16T00:08:29;14.30;1.00
24446;DHT22;13347;50.984;5.822;2024-02-16T00:10:55;14.40;1.00
24446;DHT22;13347;50.984;5.822;2024-02-16T00:13:22;14.40;1.00
24446;DHT22;13347;50.984;5.822;2024-02-16T00:15:49;14.40;1.00
24446;DHT22;13347;50.984;5.822;2024-02-16T00:18:18;14.50;1.00
24446;DHT22;13347;50.984;5.822;2024-02-16T00:20:44;14.50;1.00
24446;DHT22;13347;50.984;5.822;2024-02-16T00:23:11;14.50;1.00
24446;DHT22;13347;50.984;5.822;2024-02-16T00:25:38;14.50;1.00
24446;DHT22;13347;50.984;5.822;2024-02-16T00:28:06;14.50;1.00
24446;DHT22;13347;50.984;5.822;2024-02-16T00:30:33;14.50;1.00
24446;DHT22;13347;50.984;5.822;2024-02-16T00:33:02;14.50;1.00
24446;DHT22;13347;50.984;5.822;2024-02-16T00:35:30;14.50;1.00
24446;DHT22;13347;50.984;5.822;2024-02-16T00:37:58;14.60;1.00
24446;DHT22;13347;50.984;5.822;2024-02-16T00:40:25;14.70;1.00
24446;DHT22;13347;50.984;5.822;2024-02-16T00:42:52;14.60;1.00
24446;DHT22;13347;50.984;5.822;2024-02-16T00:45:20;14.70;1.00
24446;DHT22;13347;50.984;5.822;2024-02-16T00:47:46;14.70;1.00
24446;DHT22;13347;50.984;5.822;2024-02-16T00:50:14;14.70;1.00
24446;DHT22;13347;50.984;5.822;2024-02-16T00:52:43;14.60;1.00
24446;DHT22;13347;50.984;5.822;2024-02-16T00:55:11;14.60;1.00
24446;DHT22;13347;50.984;5.822;2024-02-16T00:57:38;14.50;1.00
24446;DHT22;13347;50.984;5.822;2024-02-16T01:00:06;14.40;1.00
24446;DHT22;13347;50.984;5.822;2024-02-16T01:02:34;14.20;1.00
24446;DHT22;13347;50.984;5.822;2024-02-16T01:05:01;14.00;1.00
24446;DHT22;13347;50.984;5.822;2024-02-16T01:07:28;13.90;33.50
24446;DHT22;13347;50.984;5.822;2024-02-16T01:09:58;13.90;99.40
24446;DHT22;13347;50.984;5.822;2024-02-16T01:12:25;13.90;99.90
24446;DHT22;13347;50.984;5.822;2024-02-16T01:14:52;14.00;91.50
24446;DHT22;13347;50.984;5.822;2024-02-16T01:17:19;14.10;99.90
24446;DHT22;13347;50.984;5.822;2024-02-16T01:19:46;14.00;99.90
24446;DHT22;13347;50.984;5.822;2024-02-16T01:22:13;14.00;99.90
24446;DHT22;13347;50.984;5.822;2024-02-16T01:24:40;14.10;99.10
24446;DHT22;13347;50.984;5.822;2024-02-16T01:27:08;14.00;99.90
24446;DHT22;13347;50.984;5.822;2024-02-16T01:29:36;14.10;99.20
24446;DHT22;13347;50.984;5.822;2024-02-16T01:32:03;14.10;73.10
24446;DHT22;13347;50.984;5.822;2024-02-16T01:34:30;14.20;52.10
24446;DHT22;13347;50.984;5.822;2024-02-16T01:36:57;14.30;47.80
24446;DHT22;13347;50.984;5.822;2024-02-16T01:39:24;14.30;84.20
24446;DHT22;13347;50.984;5.822;2024-02-16T01:41:51;14.40;34.50
24446;DHT22;13347;50.984;5.822;2024-02-16T01:44:19;14.40;27.60
24446;DHT22;13347;50.984;5.822;2024-02-16T01:46:46;14.40;19.90
24446;DHT22;13347;50.984;5.822;2024-02-16T01:49:13;14.40;1.00
24446;DHT22;13347;50.984;5.822;2024-02-16T01:51:41;14.40;1.00
24446;DHT22;13347;50.984;5.822;2024-02-16T01:54:10;14.40;1.00
24446;DHT22;13347;50.984;5.822;2024-02-16T01:56:37;14.40;1.00
24446;DHT22;13347;50.984;5.822;2024-02-16T01:59:04;14.40;1.00
24446;DHT22;13347;50.984;5.822;2024-02-16T02:01:32;14.40;1.00
24446;DHT22;13347;50.984;5.822;2024-02-16T02:04:00;14.40;1.00
24446;DHT22;13347;50.984;5.822;2024-02-16T02:06:27;14.40;1.00
24446;DHT22;13347;50.984;5.822;2024-02-16T02:08:53;14.40;1.00
24446;DHT22;13347;50.984;5.822;2024-02-16T02:11:20;14.40;1.00
24446;DHT22;13347;50.984;5.822;2024-02-16T02:13:47;14.50;1.00
24446;DHT22;13347;50.984;5.822;2024-02-16T02:16:14;14.40;1.00
24446;DHT22;13347;50.984;5.822;2024-02-16T02:18:43;14.40;1.00
24446;DHT22;13347;50.984;5.822;2024-02-16T02:21:10;14.40;1.00
24446;DHT22;13347;50.984;5.822;2024-02-16T02:23:40;14.50;1.00
24446;DHT22;13347;50.984;5.822;2024-02-16T02:26:07;14.50;1.00
24446;DHT22;13347;50.984;5.822;2024-02-16T02:28:34;14.50;1.00
24446;DHT22;13347;50.984;5.822;2024-02-16T02:31:01;14.50;1.00
24446;DHT22;13347;50.984;5.822;2024-02-16T02:33:28;14.60;1.00
24446;DHT22;13347;50.984;5.822;2024-02-16T02:35:55;14.60;1.00
24446;DHT22;13347;50.984;5.822;2024-02-16T02:38:22;14.60;1.00
24446;DHT22;13347;50.984;5.822;2024-02-16T02:40:50;14.70;1.00
24446;DHT22;13347;50.984;5.822;2024-02-16T02:43:17;14.70;1.00
24446;DHT22;13347;50.984;5.822;2024-02-16T02:45:47;14.80;1.00
24446;DHT22;13347;50.984;5.822;2024-02-16T02:48:14;14.80;1.00
24446;DHT22;13347;50.984;5.822;2024-02-16T02:50:41;14.80;1.00
24446;DHT22;13347;50.984;5.822;2024-02-16T02:53:08;14.80;1.00
24446;DHT22;13347;50.984;5.822;2024-02-16T02:55:35;14.80;1.00
24446;DHT22;13347;50.984;5.822;2024-02-16T02:58:04;14.80;1.00
24446;DHT22;13347;50.984;5.822;2024-02-16T03:00:31;14.80;1.00
24446;DHT22;13347;50.984;5.822;2024-02-16T03:02:58;14.80;1.00
24446;DHT22;13347;50.984;5.822;2024-02-16T03:05:24;14.80;10.60
24446;DHT22;13347;50.984;5.822;2024-02-16T03:07:51;14.80;22.80
24446;DHT22;13347;50.984;5.822;2024-02-16T03:10:19;14.80;27.60
24446;DHT22;13347;50.984;5.822;2024-02-16T03:12:49;14.70;25.80
24446;DHT22;13347;50.984;5.822;2024-02-16T03:15:17;14.70;44.60
24446;DHT22;13347;50.984;5.822;2024-02-16T03:17:44;14.70;67.40
24446;DHT22;13347;50.984;5.822;2024-02-16T03:20:11;14.70;65.60
24446;DHT22;13347;50.984;5.822;2024-02-16T03:22:38;14.70;74.10
24446;DHT22;13347;50.984;5.822;2024-02-16T03:25:05;14.80;79.00
24446;DHT22;13347;50.984;5.822;2024-02-16T03:27:32;14.80;93.60
24446;DHT22;13347;50.984;5.822;2024-02-16T03:29:59;14.80;96.70
24446;DHT22;13347;50.984;5.822;2024-02-16T03:32:29;14.80;94.20
24446;DHT22;13347;50.984;5.822;2024-02-16T03:34:56;14.80;98.90
24446;DHT22;13347;50.984;5.822;2024-02-16T03:37:24;14.80;99.90
24446;DHT22;13347;50.984;5.822;2024-02-16T03:39:51;14.80;99.90
24446;DHT22;13347;50.984;5.822;2024-02-16T03:42:18;14.90;99.90
24446;DHT22;13347;50.984;5.822;2024-02-16T03:44:45;15.00;99.90
24446;DHT22;13347;50.984;5.822;2024-02-16T03:47:12;14.90;99.90
24446;DHT22;13347;50.984;5.822;2024-02-16T03:49:42;15.00;99.90
24446;DHT22;13347;50.984;5.822;2024-02-16T03:52:09;14.90;99.90
24446;DHT22;13347;50.984;5.822;2024-02-16T03:54:36;15.00;99.90
24446;DHT22;13347;50.984;5.822;2024-02-16T03:57:03;15.00;99.90
24446;DHT22;13347;50.984;5.822;2024-02-16T03:59:34;15.00;99.90
24446;DHT22;13347;50.984;5.822;2024-02-16T04:02:01;15.00;99.90
24446;DHT22;13347;50.984;5.822;2024-02-16T04:04:28;15.00;99.90
24446;DHT22;13347;50.984;5.822;2024-02-16T04:06:57;15.00;99.90
24446;DHT22;13347;50.984;5.822;2024-02-16T04:09:23;15.00;99.90
24446;DHT22;13347;50.984;5.822;2024-02-16T04:11:50;14.90;99.90
24446;DHT22;13347;50.984;5.822;2024-02-16T04:14:17;14.90;99.90
24446;DHT22;13347;50.984;5.822;2024-02-16T04:16:44;14.90;99.90
24446;DHT22;13347;50.984;5.822;2024-02-16T04:19:11;14.90;99.90
24446;DHT22;13347;50.984;5.822;2024-02-16T04:21:38;14.80;99.90
24446;DHT22;13347;50.984;5.822;2024-02-16T04:24:07;14.80;99.90
24446;DHT22;13347;50.984;5.822;2024-02-16T04:26:34;14.90;99.90
24446;DHT22;13347;50.984;5.822;2024-02-16T04:29:01;14.90;99.90
24446;DHT22;13347;50.984;5.822;2024-02-16T04:31:29;14.80;99.90
24446;DHT22;13347;50.984;5.822;2024-02-16T04:33:56;14.80;99.90
24446;DHT22;13347;50.984;5.822;2024-02-16T04:36:23;14.90;99.90
24446;DHT22;13347;50.984;5.822;2024-02-16T04:38:50;14.90;99.90
24446;DHT22;13347;50.984;5.822;2024-02-16T04:41:20;14.90;99.90
24446;DHT22;13347;50.984;5.822;2024-02-16T04:43:47;14.90;99.90
24446;DHT22;13347;50.984;5.822;2024-02-16T04:46:14;14.90;99.90
24446;DHT22;13347;50.984;5.822;2024-02-16T04:48:42;14.90;99.90
24446;DHT22;13347;50.984;5.822;2024-02-16T04:51:09;14.90;99.90
24446;DHT22;13347;50.984;5.822;2024-02-16T04:53:36;15.00;99.90
24446;DHT22;13347;50.984;5.822;2024-02-16T04:56:03;15.00;99.90
24446;DHT22;13347;50.984;5.822;2024-02-16T04:58:32;14.90;99.90
24446;DHT22;13347;50.984;5.822;2024-02-16T05:00:59;14.90;99.90
24446;DHT22;13347;50.984;5.822;2024-02-16T05:03:26;15.00;99.90
24446;DHT22;13347;50.984;5.822;2024-02-16T05:05:53;15.00;99.90
24446;DHT22;13347;50.984;5.822;2024-02-16T05:08:21;14.90;99.90
24446;DHT22;13347;50.984;5.822;2024-02-16T05:10:48;14.90;99.90
24446;DHT22;13347;50.984;5.822;2024-02-16T05:13:15;14.90;99.90
24446;DHT22;13347;50.984;5.822;2024-02-16T05:15:44;14.90;99.90
24446;DHT22;13347;50.984;5.822;2024-02-16T05:18:13;15.00;99.90
24446;DHT22;13347;50.984;5.822;2024-02-16T05:20:39;14.90;99.90
24446;DHT22;13347;50.984;5.822;2024-02-16T05:23:06;15.00;99.90
24446;DHT22;13347;50.984;5.822;2024-02-16T05:25:33;15.10;99.90
24446;DHT22;13347;50.984;5.822;2024-02-16T05:28:00;15.00;99.90
24446;DHT22;13347;50.984;5.822;2024-02-16T05:30:28;15.00;99.90
24446;DHT22;13347;50.984;5.822;2024-02-16T05:32:56;15.10;99.90
24446;DHT22;13347;50.984;5.822;2024-02-16T05:35:24;15.10;99.90
24446;DHT22;13347;50.984;5.822;2024-02-16T05:37:54;15.10;99.90
24446;DHT22;13347;50.984;5.822;2024-02-16T05:40:21;15.10;99.90
24446;DHT22;13347;50.984;5.822;2024-02-16T05:42:52;15.00;99.90
24446;DHT22;13347;50.984;5.822;2024-02-16T05:45:19;15.10;99.90
24446;DHT22;13347;50.984;5.822;2024-02-16T05:47:47;15.00;99.90
24446;DHT22;13347;50.984;5.822;2024-02-16T05:50:15;15.00;99.90
24446;DHT22;13347;50.984;5.822;2024-02-16T05:52:42;15.00;99.90
24446;DHT22;13347;50.984;5.822;2024-02-16T05:55:10;15.00;99.90
24446;DHT22;13347;50.984;5.822;2024-02-16T05:57:37;15.10;99.90
24446;DHT22;13347;50.984;5.822;2024-02-16T06:00:04;15.00;99.90
24446;DHT22;13347;50.984;5.822;2024-02-16T06:02:32;14.90;99.90
24446;DHT22;13347;50.984;5.822;2024-02-16T06:04:59;14.90;99.90
24446;DHT22;13347;50.984;5.822;2024-02-16T06:07:27;14.90;99.90
24446;DHT22;13347;50.984;5.822;2024-02-16T06:09:54;14.90;99.90
24446;DHT22;13347;50.984;5.822;2024-02-16T06:12:21;14.90;99.90
24446;DHT22;13347;50.984;5.822;2024-02-16T06:14:48;14.90;99.90
24446;DHT22;13347;50.984;5.822;2024-02-16T06:17:15;14.80;99.90
24446;DHT22;13347;50.984;5.822;2024-02-16T06:19:42;14.80;99.90
24446;DHT22;13347;50.984;5.822;2024-02-16T06:22:09;14.80;99.90
24446;DHT22;13347;50.984;5.822;2024-02-16T06:24:38;14.80;99.90
24446;DHT22;13347;50.984;5.822;2024-02-16T06:27:05;14.80;99.90
24446;DHT22;13347;50.984;5.822;2024-02-16T06:29:33;14.80;99.90
24446;DHT22;13347;50.984;5.822;2024-02-16T06:32:00;14.80;99.90
24446;DHT22;13347;50.984;5.822;2024-02-16T06:34:29;14.70;99.90
24446;DHT22;13347;50.984;5.822;2024-02-16T06:36:56;14.70;1.00
24446;DHT22;13347;50.984;5.822;2024-02-16T06:39:23;14.70;1.00
24446;DHT22;13347;50.984;5.822;2024-02-16T06:41:52;14.70;1.00
24446;DHT22;13347;50.984;5.822;2024-02-16T06:44:18;14.70;1.00
24446;DHT22;13347;50.984;5.822;2024-02-16T06:46:45;14.70;1.00
24446;DHT22;13347;50.984;5.822;2024-02-16T06:49:12;14.80;1.00
24446;DHT22;13347;50.984;5.822;2024-02-16T06:51:39;14.70;1.00
24446;DHT22;13347;50.984;5.822;2024-02-16T06:54:06;14.80;1.00
24446;DHT22;13347;50.984;5.822;2024-02-16T06:56:33;14.90;1.00
24446;DHT22;13347;50.984;5.822;2024-02-16T06:59:02;14.90;1.00
24446;DHT22;13347;50.984;5.822;2024-02-16T07:01:29;14.90;1.00
24446;DHT22;13347;50.984;5.822;2024-02-16T07:03:56;14.90;1.00
24446;DHT22;13347;50.984;5.822;2024-02-16T07:06:23;14.90;1.00
24446;DHT22;13347;50.984;5.822;2024-02-16T07:08:51;14.80;1.00
24446;DHT22;13347;50.984;5.822;2024-02-16T07:11:17;14.80;1.00
24446;DHT22;13347;50.984;5.822;2024-02-16T07:13:46;14.80;1.00
24446;DHT22;13347;50.984;5.822;2024-02-16T07:16:14;14.80;1.00
24446;DHT22;13347;50.984;5.822;2024-02-16T07:18:42;14.80;1.00
24446;DHT22;13347;50.984;5.822;2024-02-16T07:21:08;14.80;1.00
24446;DHT22;13347;50.984;5.822;2024-02-16T07:23:36;14.80;1.00
24446;DHT22;13347;50.984;5.822;2024-02-16T07:26:03;14.80;1.00
24446;DHT22;13347;50.984;5.822;2024-02-16T07:28:30;14.80;1.00
24446;DHT22;13347;50.984;5.822;2024-02-16T07:30:57;14.80;1.00
24446;DHT22;13347;50.984;5.822;2024-02-16T07:33:25;14.80;1.00
24446;DHT22;13347;50.984;5.822;2024-02-16T07:35:53;14.80;1.00
24446;DHT22;13347;50.984;5.822;2024-02-16T07:38:20;14.80;1.00
24446;DHT22;13347;50.984;5.822;2024-02-16T07:40:48;14.80;1.00
24446;DHT22;13347;50.984;5.822;2024-02-16T07:43:16;14.80;1.00
24446;DHT22;13347;50.984;5.822;2024-02-16T07:45:43;14.80;1.00
24446;DHT22;13347;50.984;5.822;2024-02-16T07:48:10;14.80;1.00
24446;DHT22;13347;50.984;5.822;2024-02-16T07:50:38;14.90;1.00
24446;DHT22;13347;50.984;5.822;2024-02-16T07:53:05;14.90;1.00
24446;DHT22;13347;50.984;5.822;2024-02-16T07:55:32;14.90;1.00
24446;DHT22;13347;50.984;5.822;2024-02-16T07:57:59;14.90;1.00
24446;DHT22;13347;50.984;5.822;2024-02-16T08:00:25;14.90;1.00
24446;DHT22;13347;50.984;5.822;2024-02-16T08:02:53;14.90;1.00
24446;DHT22;13347;50.984;5.822;2024-02-16T08:05:20;14.90;1.00
24446;DHT22;13347;50.984;5.822;2024-02-16T08:07:49;14.90;1.00
24446;DHT22;13347;50.984;5.822;2024-02-16T08:10:18;14.90;1.00
24446;DHT22;13347;50.984;5.822;2024-02-16T08:12:46;14.90;1.00
24446;DHT22;13347;50.984;5.822;2024-02-16T08:15:13;15.00;1.00
24446;DHT22;13347;50.984;5.822;2024-02-16T08:17:40;15.00;1.00
24446;DHT22;13347;50.984;5.822;2024-02-16T08:20:08;15.00;1.00
24446;DHT22;13347;50.984;5.822;2024-02-16T08:22:35;14.90;1.00
24446;DHT22;13347;50.984;5.822;2024-02-16T08:25:04;14.80;1.00
24446;DHT22;13347;50.984;5.822;2024-02-16T08:27:31;14.70;99.90
24446;DHT22;13347;50.984;5.822;2024-02-16T08:29:57;14.70;99.90
24446;DHT22;13347;50.984;5.822;2024-02-16T08:32:24;14.80;99.90
24446;DHT22;13347;50.984;5.822;2024-02-16T08:34:52;14.80;99.90
24446;DHT22;13347;50.984;5.822;2024-02-16T08:37:19;14.90;99.90
24446;DHT22;13347;50.984;5.822;2024-02-16T08:39:46;15.00;2.90
24446;DHT22;13347;50.984;5.822;2024-02-16T08:42:14;15.00;20.60
24446;DHT22;13347;50.984;5.822;2024-02-16T08:44:41;15.00;23.70
24446;DHT22;13347;50.984;5.822;2024-02-16T08:47:08;15.00;17.60
24446;DHT22;13347;50.984;5.822;2024-02-16T08:49:35;15.00;99.90
24446;DHT22;13347;50.984;5.822;2024-02-16T08:52:05;15.00;99.90
24446;DHT22;13347;50.984;5.822;2024-02-16T08:54:33;15.00;99.90
24446;DHT22;13347;50.984;5.822;2024-02-16T08:56:59;15.00;91.60
24446;DHT22;13347;50.984;5.822;2024-02-16T08:59:28;15.10;99.90
24446;DHT22;13347;50.984;5.822;2024-02-16T09:01:56;15.10;82.90
24446;DHT22;13347;50.984;5.822;2024-02-16T09:04:24;15.10;90.20
24446;DHT22;13347;50.984;5.822;2024-02-16T09:06:51;15.10;99.90
24446;DHT22;13347;50.984;5.822;2024-02-16T09:09:18;15.20;99.90
24446;DHT22;13347;50.984;5.822;2024-02-16T09:11:45;15.20;99.90
24446;DHT22;13347;50.984;5.822;2024-02-16T09:14:12;15.20;99.90
24446;DHT22;13347;50.984;5.822;2024-02-16T09:16:40;15.20;99.90
24446;DHT22;13347;50.984;5.822;2024-02-16T09:19:07;15.20;99.90
24446;DHT22;13347;50.984;5.822;2024-02-16T09:21:35;15.20;99.90
24446;DHT22;13347;50.984;5.822;2024-02-16T09:24:02;15.20;99.90
24446;DHT22;13347;50.984;5.822;2024-02-16T09:26:30;15.20;99.90
24446;DHT22;13347;50.984;5.822;2024-02-16T09:28:58;15.20;99.90
24446;DHT22;13347;50.984;5.822;2024-02-16T09:31:25;15.20;1.00
24446;DHT22;13347;50.984;5.822;2024-02-16T09:33:54;15.30;1.00
24446;DHT22;13347;50.984;5.822;2024-02-16T09:36:20;15.30;1.00
24446;DHT22;13347;50.984;5.822;2024-02-16T09:38:48;15.40;1.00
24446;DHT22;13347;50.984;5.822;2024-02-16T09:41:16;15.40;99.90
24446;DHT22;13347;50.984;5.822;2024-02-16T09:43:42;15.40;1.00
24446;DHT22;13347;50.984;5.822;2024-02-16T09:46:09;15.50;99.90
24446;DHT22;13347;50.984;5.822;2024-02-16T09:48:37;15.50;99.90
24446;DHT22;13347;50.984;5.822;2024-02-16T09:51:07;15.60;99.90
24446;DHT22;13347;50.984;5.822;2024-02-16T09:53:34;15.60;99.90
24446;DHT22;13347;50.984;5.822;2024-02-16T09:56:01;15.50;99.90
24446;DHT22;13347;50.984;5.822;2024-02-16T09:58:31;15.60;1.00
24446;DHT22;13347;50.984;5.822;2024-02-16T10:00:58;15.60;1.00
24446;DHT22;13347;50.984;5.822;2024-02-16T10:03:25;15.60;99.90
24446;DHT22;13347;50.984;5.822;2024-02-16T10:05:52;15.70;1.00
24446;DHT22;13347;50.984;5.822;2024-02-16T10:08:21;15.60;1.00
24446;DHT22;13347;50.984;5.822;2024-02-16T10:10:47;15.60;1.00
24446;DHT22;13347;50.984;5.822;2024-02-16T10:13:15;15.60;1.00
24446;DHT22;13347;50.984;5.822;2024-02-16T10:15:42;15.50;1.00
24446;DHT22;13347;50.984;5.822;2024-02-16T10:18:10;15.50;1.00
24446;DHT22;13347;50.984;5.822;2024-02-16T10:20:37;15.50;1.00
24446;DHT22;13347;50.984;5.822;2024-02-16T10:23:05;15.50;1.00
24446;DHT22;13347;50.984;5.822;2024-02-16T10:25:33;15.40;1.00
24446;DHT22;13347;50.984;5.822;2024-02-16T10:28:02;15.30;99.90
24446;DHT22;13347;50.984;5.822;2024-02-16T10:30:31;15.40;99.90
24446;DHT22;13347;50.984;5.822;2024-02-16T10:33:00;15.40;99.90
24446;DHT22;13347;50.984;5.822;2024-02-16T10:35:27;15.30;1.00
24446;DHT22;13347;50.984;5.822;2024-02-16T10:37:54;15.30;1.00
24446;DHT22;13347;50.984;5.822;2024-02-16T10:40:23;15.20;1.00
24446;DHT22;13347;50.984;5.822;2024-02-16T10:42:52;15.20;1.00
24446;DHT22;13347;50.984;5.822;2024-02-16T10:45:19;15.20;1.00
24446;DHT22;13347;50.984;5.822;2024-02-16T10:47:47;15.20;1.00
24446;DHT22;13347;50.984;5.822;2024-02-16T10:50:14;15.20;1.00
24446;DHT22;13347;50.984;5.822;2024-02-16T10:52:41;15.20;99.90
24446;DHT22;13347;50.984;5.822;2024-02-16T10:55:09;15.10;99.90
24446;DHT22;13347;50.984;5.822;2024-02-16T10:57:36;15.10;1.00
24446;DHT22;13347;50.984;5.822;2024-02-16T11:00:09;15.10;1.00
24446;DHT22;13347;50.984;5.822;2024-02-16T11:02:54;15.10;1.00
24446;DHT22;13347;50.984;5.822;2024-02-16T11:05:33;15.10;1.00
24446;DHT22;13347;50.984;5.822;2024-02-16T11:08:00;15.00;1.00
24446;DHT22;13347;50.984;5.822;2024-02-16T11:10:27;15.10;1.00
24446;DHT22;13347;50.984;5.822;2024-02-16T11:12:54;15.00;1.00
24446;DHT22;13347;50.984;5.822;2024-02-16T11:15:28;15.10;1.00
24446;DHT22;13347;50.984;5.822;2024-02-16T11:17:56;15.00;1.00
24446;DHT22;13347;50.984;5.822;2024-02-16T11:20:24;15.10;19.30
24446;DHT22;13347;50.984;5.822;2024-02-16T11:22:51;15.00;47.70
24446;DHT22;13347;50.984;5.822;2024-02-16T11:25:18;14.90;99.90
24446;DHT22;13347;50.984;5.822;2024-02-16T11:27:46;14.90;99.90
24446;DHT22;13347;50.984;5.822;2024-02-16T11:30:13;15.00;99.90
24446;DHT22;13347;50.984;5.822;2024-02-16T11:32:43;14.90;99.90
24446;DHT22;13347;50.984;5.822;2024-02-16T11:35:10;14.90;99.90
24446;DHT22;13347;50.984;5.822;2024-02-16T11:37:37;14.80;1.00
24446;DHT22;13347;50.984;5.822;2024-02-16T11:40:05;14.80;1.00
24446;DHT22;13347;50.984;5.822;2024-02-16T11:42:33;14.70;1.00
24446;DHT22;13347;50.984;5.822;2024-02-16T11:45:01;14.60;1.00
24446;DHT22;13347;50.984;5.822;2024-02-16T11:47:28;14.70;1.00
24446;DHT22;13347;50.984;5.822;2024-02-16T11:50:03;14.70;1.00
24446;DHT22;13347;50.984;5.822;2024-02-16T11:52:30;14.60;1.00
24446;DHT22;13347;50.984;5.822;2024-02-16T11:54:57;14.60;1.00
24446;DHT22;13347;50.984;5.822;2024-02-16T11:57:26;14.60;1.00
24446;DHT22;13347;50.984;5.822;2024-02-16T11:59:53;14.60;1.00
24446;DHT22;13347;50.984;5.822;2024-02-16T12:02:23;14.60;1.00
24446;DHT22;13347;50.984;5.822;2024-02-16T12:04:57;14.50;1.00
24446;DHT22;13347;50.984;5.822;2024-02-16T12:07:26;14.60;1.00
24446;DHT22;13347;50.984;5.822;2024-02-16T12:09:55;14.60;1.00
24446;DHT22;13347;50.984;5.822;2024-02-16T12:12:22;14.60;1.00
24446;DHT22;13347;50.984;5.822;2024-02-16T12:14:49;14.60;1.00
24446;DHT22;13347;50.984;5.822;2024-02-16T12:17:16;14.60;1.00
24446;DHT22;13347;50.984;5.822;2024-02-16T12:19:43;14.60;1.00
24446;DHT22;13347;50.984;5.822;2024-02-16T12:22:09;14.60;1.00
24446;DHT22;13347;50.984;5.822;2024-02-16T12:24:38;14.50;1.00
24446;DHT22;13347;50.984;5.822;2024-02-16T12:27:05;14.50;1.00
24446;DHT22;13347;50.984;5.822;2024-02-16T12:29:32;14.40;1.00
24446;DHT22;13347;50.984;5.822;2024-02-16T12:31:58;14.30;1.00
24446;DHT22;13347;50.984;5.822;2024-02-16T12:34:25;14.30;1.00
24446;DHT22;13347;50.984;5.822;2024-02-16T12:36:53;14.20;1.00
24446;DHT22;13347;50.984;5.822;2024-02-16T12:39:20;14.10;1.00
24446;DHT22;13347;50.984;5.822;2024-02-16T12:41:49;14.10;21.30
24446;DHT22;13347;50.984;5.822;2024-02-16T12:44:16;14.00;46.90
24446;DHT22;13347;50.984;5.822;2024-02-16T12:46:43;13.90;84.80
24446;DHT22;13347;50.984;5.822;2024-02-16T12:49:10;13.90;99.90
24446;DHT22;13347;50.984;5.822;2024-02-16T12:51:36;13.90;99.90
24446;DHT22;13347;50.984;5.822;2024-02-16T12:54:03;13.80;99.90
24446;DHT22;13347;50.984;5.822;2024-02-16T12:56:30;13.80;99.90
24446;DHT22;13347;50.984;5.822;2024-02-16T12:58:59;13.80;99.90
24446;DHT22;13347;50.984;5.822;2024-02-16T13:01:27;13.70;99.90
24446;DHT22;13347;50.984;5.822;2024-02-16T13:03:54;13.60;99.90
24446;DHT22;13347;50.984;5.822;2024-02-16T13:06:21;13.70;99.90
24446;DHT22;13347;50.984;5.822;2024-02-16T13:08:48;13.60;99.90
24446;DHT22;13347;50.984;5.822;2024-02-16T13:11:16;13.60;99.90
24446;DHT22;13347;50.984;5.822;2024-02-16T13:13:43;13.60;99.90
24446;DHT22;13347;50.984;5.822;2024-02-16T13:16:11;13.60;99.90
24446;DHT22;13347;50.984;5.822;2024-02-16T13:18:38;13.50;99.90
24446;DHT22;13347;50.984;5.822;2024-02-16T13:21:06;13.50;99.90
24446;DHT22;13347;50.984;5.822;2024-02-16T13:23:33;13.50;99.90
24446;DHT22;13347;50.984;5.822;2024-02-16T13:26:00;13.50;99.90
24446;DHT22;13347;50.984;5.822;2024-02-16T13:28:27;13.50;99.90
24446;DHT22;13347;50.984;5.822;2024-02-16T13:30:54;13.50;99.90
24446;DHT22;13347;50.984;5.822;2024-02-16T13:33:22;13.50;99.90
24446;DHT22;13347;50.984;5.822;2024-02-16T13:35:49;13.50;99.90
24446;DHT22;13347;50.984;5.822;2024-02-16T13:38:16;13.50;99.90
24446;DHT22;13347;50.984;5.822;2024-02-16T13:40:43;13.50;99.90
24446;DHT22;13347;50.984;5.822;2024-02-16T13:43:10;13.50;99.90
24446;DHT22;13347;50.984;5.822;2024-02-16T13:45:50;13.50;99.90
24446;DHT22;13347;50.984;5.822;2024-02-16T13:48:17;13.60;99.90
24446;DHT22;13347;50.984;5.822;2024-02-16T13:50:46;13.60;99.90
24446;DHT22;13347;50.984;5.822;2024-02-16T13:53:13;13.50;99.90
24446;DHT22;13347;50.984;5.822;2024-02-16T13:55:41;13.60;99.90
24446;DHT22;13347;50.984;5.822;2024-02-16T13:58:08;13.60;99.90
24446;DHT22;13347;50.984;5.822;2024-02-16T14:00:35;13.70;99.90
24446;DHT22;13347;50.984;5.822;2024-02-16T14:03:02;13.60;99.90
24446;DHT22;13347;50.984;5.822;2024-02-16T14:05:30;13.70;99.90
24446;DHT22;13347;50.984;5.822;2024-02-16T14:07:58;13.60;99.90
24446;DHT22;13347;50.984;5.822;2024-02-16T14:10:25;13.70;99.90
24446;DHT22;13347;50.984;5.822;2024-02-16T14:12:52;13.60;99.90
24446;DHT22;13347;50.984;5.822;2024-02-16T14:15:19;13.60;99.90
24446;DHT22;13347;50.984;5.822;2024-02-16T14:17:45;13.70;99.90
24446;DHT22;13347;50.984;5.822;2024-02-16T14:20:12;13.70;99.90
24446;DHT22;13347;50.984;5.822;2024-02-16T14:22:39;13.70;99.90
24446;DHT22;13347;50.984;5.822;2024-02-16T14:25:09;13.50;99.90
24446;DHT22;13347;50.984;5.822;2024-02-16T14:27:36;13.50;99.90
24446;DHT22;13347;50.984;5.822;2024-02-16T14:30:04;13.40;99.90
24446;DHT22;13347;50.984;5.822;2024-02-16T14:32:31;13.40;99.90
24446;DHT22;13347;50.984;5.822;2024-02-16T14:34:58;13.30;99.90
24446;DHT22;13347;50.984;5.822;2024-02-16T14:37:25;13.40;99.90
24446;DHT22;13347;50.984;5.822;2024-02-16T14:39:53;13.40;99.90
24446;DHT22;13347;50.984;5.822;2024-02-16T14:42:24;13.30;99.90
24446;DHT22;13347;50.984;5.822;2024-02-16T14:44:51;13.30;99.90
24446;DHT22;13347;50.984;5.822;2024-02-16T14:47:18;13.30;99.90
24446;DHT22;13347;50.984;5.822;2024-02-16T14:49:45;13.30;99.90
24446;DHT22;13347;50.984;5.822;2024-02-16T14:52:11;13.30;99.90
24446;DHT22;13347;50.984;5.822;2024-02-16T14:54:38;13.30;99.90
24446;DHT22;13347;50.984;5.822;2024-02-16T14:57:07;13.20;99.90
24446;DHT22;13347;50.984;5.822;2024-02-16T14:59:35;13.30;99.90
24446;DHT22;13347;50.984;5.822;2024-02-16T15:02:02;13.10;99.90
24446;DHT22;13347;50.984;5.822;2024-02-16T15:04:29;13.10;99.90
24446;DHT22;13347;50.984;5.822;2024-02-16T15:06:56;13.00;99.90
24446;DHT22;13347;50.984;5.822;2024-02-16T15:09:23;13.00;99.90
24446;DHT22;13347;50.984;5.822;2024-02-16T15:11:50;12.90;99.90
24446;DHT22;13347;50.984;5.822;2024-02-16T15:14:17;12.90;99.90
24446;DHT22;13347;50.984;5.822;2024-02-16T15:16:45;12.90;99.90
24446;DHT22;13347;50.984;5.822;2024-02-16T15:19:12;12.90;99.90
24446;DHT22;13347;50.984;5.822;2024-02-16T15:21:39;12.90;99.90
24446;DHT22;13347;50.984;5.822;2024-02-16T15:24:06;12.90;99.90
24446;DHT22;13347;50.984;5.822;2024-02-16T15:26:33;12.80;99.90
24446;DHT22;13347;50.984;5.822;2024-02-16T15:29:00;12.80;99.90
24446;DHT22;13347;50.984;5.822;2024-02-16T15:31:28;12.80;99.90
24446;DHT22;13347;50.984;5.822;2024-02-16T15:33:56;12.80;99.90
24446;DHT22;13347;50.984;5.822;2024-02-16T15:36:23;12.80;99.90
24446;DHT22;13347;50.984;5.822;2024-02-16T15:38:50;12.80;99.90